createdAt,value
2018-07-23T00:00:18.162Z,7.40
2018-07-23T00:02:20.251Z,7.50
2018-07-23T00:04:22.398Z,7.70
2018-07-23T00:06:24.534Z,8.37
2018-07-23T00:08:26.626Z,8.10
2018-07-23T00:10:28.754Z,7.70
2018-07-23T00:12:30.874Z,7.73
2018-07-23T00:14:33.005Z,9.10
2018-07-23T00:16:35.104Z,7.90
2018-07-23T00:18:37.198Z,7.40
2018-07-23T00:20:39.305Z,7.97
2018-07-23T00:22:41.442Z,8.07
2018-07-23T00:24:43.630Z,6.93
2018-07-23T00:26:45.744Z,7.00
2018-07-23T00:28:47.874Z,7.43
2018-07-23T00:30:49.991Z,6.63
2018-07-23T00:32:52.077Z,7.43
2018-07-23T00:34:54.207Z,7.17
2018-07-23T00:36:56.338Z,7.57
2018-07-23T00:38:58.442Z,7.00
2018-07-23T00:41:00.826Z,7.60
2018-07-23T00:43:02.945Z,7.47
2018-07-23T00:45:05.181Z,7.27
2018-07-23T00:47:07.333Z,7.57
2018-07-23T00:49:09.482Z,7.50
2018-07-23T00:51:11.622Z,7.93
2018-07-23T00:53:13.751Z,8.10
2018-07-23T00:55:15.886Z,8.30
2018-07-23T00:57:18.027Z,8.80
2018-07-23T00:59:20.150Z,9.10
2018-07-23T01:01:22.271Z,9.30
2018-07-23T01:03:24.378Z,9.33
2018-07-23T01:05:26.733Z,8.80
2018-07-23T01:07:28.854Z,9.30
2018-07-23T01:09:30.990Z,8.70
2018-07-23T01:11:33.138Z,9.40
2018-07-23T01:13:35.528Z,9.90
2018-07-23T01:15:37.640Z,10.30
2018-07-23T01:17:39.753Z,11.40
2018-07-23T01:19:41.866Z,9.90
2018-07-23T01:21:44.042Z,10.50
2018-07-23T01:23:46.178Z,10.33
2018-07-23T01:25:48.286Z,11.03
2018-07-23T01:27:50.402Z,8.87
2018-07-23T01:29:52.532Z,10.10
2018-07-23T01:31:54.622Z,11.10
2018-07-23T01:33:56.733Z,11.10
2018-07-23T01:35:58.878Z,11.30
2018-07-23T01:38:01.289Z,11.73
2018-07-23T01:40:04.439Z,12.97
2018-07-23T01:42:06.541Z,11.90
2018-07-23T01:44:08.657Z,12.47
2018-07-23T01:46:10.779Z,12.83
2018-07-23T01:48:12.874Z,12.00
2018-07-23T01:50:14.976Z,14.63
2018-07-23T01:52:17.095Z,14.53
2018-07-23T01:54:19.313Z,12.80
2018-07-23T01:56:21.714Z,15.20
2018-07-23T01:58:23.821Z,15.40
2018-07-23T02:00:25.942Z,16.37
2018-07-23T02:02:28.070Z,16.50
2018-07-23T02:04:32.403Z,16.63
2018-07-23T02:06:34.535Z,16.93
2018-07-23T02:08:36.916Z,17.13
2018-07-23T02:10:39.045Z,17.10
2018-07-23T02:12:41.933Z,17.40
2018-07-23T02:14:44.052Z,16.97
2018-07-23T02:16:46.186Z,17.37
2018-07-23T02:18:48.320Z,18.17
2018-07-23T02:20:50.643Z,18.00
2018-07-23T02:22:52.774Z,17.77
2018-07-23T02:24:54.904Z,17.70
2018-07-23T02:26:57.038Z,17.90
2018-07-23T02:28:59.175Z,17.67
2018-07-23T02:31:01.319Z,17.90
2018-07-23T02:33:03.428Z,18.27
2018-07-23T02:35:05.570Z,17.53
2018-07-23T02:37:07.704Z,16.90
2018-07-23T02:39:10.489Z,19.93
2018-07-23T02:41:12.635Z,17.40
2018-07-23T02:43:14.782Z,15.33
2018-07-23T02:45:16.899Z,16.67
2018-07-23T02:47:19.015Z,52.47
2018-07-23T02:49:21.114Z,17.80
2018-07-23T02:51:23.218Z,16.70
2018-07-23T02:53:25.394Z,16.60
2018-07-23T02:55:27.506Z,16.93
2018-07-23T02:57:29.607Z,19.17
2018-07-23T02:59:32.082Z,16.60
2018-07-23T03:01:34.159Z,18.27
2018-07-23T03:03:36.268Z,17.87
2018-07-23T03:05:38.407Z,17.67
2018-07-23T03:07:40.539Z,17.67
2018-07-23T03:09:42.680Z,17.80
2018-07-23T03:11:44.843Z,17.27
2018-07-23T03:13:47.202Z,18.70
2018-07-23T03:15:49.347Z,17.47
2018-07-23T03:17:51.471Z,17.67
2018-07-23T03:19:53.579Z,18.23
2018-07-23T03:21:55.784Z,16.40
2018-07-23T03:23:57.865Z,16.83
2018-07-23T03:25:59.971Z,17.10
2018-07-23T03:28:02.062Z,20.20
2018-07-23T03:30:04.264Z,22.53
2018-07-23T03:32:06.390Z,21.23
2018-07-23T03:34:08.530Z,19.70
2018-07-23T03:36:10.719Z,19.40
2018-07-23T03:38:12.822Z,19.40
2018-07-23T03:40:14.950Z,17.67
2018-07-23T03:42:17.090Z,18.67
2018-07-23T03:44:19.326Z,18.17
2018-07-23T03:46:21.439Z,18.57
2018-07-23T03:48:23.629Z,18.07
2018-07-23T03:50:25.741Z,17.43
2018-07-23T03:52:27.899Z,17.23
2018-07-23T03:54:30.190Z,17.83
2018-07-23T03:56:32.338Z,17.47
2018-07-23T03:58:34.508Z,18.63
2018-07-23T04:00:36.825Z,18.13
2018-07-23T04:02:38.950Z,17.33
2018-07-23T04:04:41.047Z,16.50
2018-07-23T04:06:43.514Z,18.20
2018-07-23T04:08:45.639Z,17.27
2018-07-23T04:10:47.846Z,18.50
2018-07-23T04:12:49.903Z,62.80
2018-07-23T04:14:52.038Z,34.23
2018-07-23T04:16:54.173Z,89.13
2018-07-23T04:18:56.299Z,33.33
2018-07-23T04:20:58.498Z,27.20
2018-07-23T04:23:00.643Z,60.27
2018-07-23T04:25:02.762Z,27.40
2018-07-23T04:27:04.949Z,20.67
2018-07-23T04:29:07.127Z,17.93
2018-07-23T04:31:09.274Z,17.83
2018-07-23T04:33:11.604Z,17.33
2018-07-23T04:35:13.830Z,22.20
2018-07-23T04:37:15.954Z,20.33
2018-07-23T04:39:18.119Z,25.67
2018-07-23T04:41:20.234Z,17.17
2018-07-23T04:43:22.370Z,21.17
2018-07-23T04:45:24.654Z,16.30
2018-07-23T04:47:26.807Z,17.57
2018-07-23T04:49:29.080Z,16.03
2018-07-23T04:51:31.242Z,16.80
2018-07-23T04:53:33.397Z,16.03
2018-07-23T04:55:35.528Z,16.27
2018-07-23T04:57:37.682Z,15.40
2018-07-23T04:59:39.814Z,16.73
2018-07-23T05:01:41.922Z,26.33
2018-07-23T05:03:44.065Z,16.37
2018-07-23T05:05:46.170Z,16.07
2018-07-23T05:07:48.278Z,15.90
2018-07-23T05:09:50.431Z,15.37
2018-07-23T05:11:52.541Z,24.93
2018-07-23T05:13:54.665Z,15.50
2018-07-23T05:15:56.762Z,15.40
2018-07-23T05:17:58.874Z,14.50
2018-07-23T05:20:01.034Z,15.07
2018-07-23T05:22:03.185Z,15.10
2018-07-23T05:24:05.314Z,13.33
2018-07-23T05:26:07.512Z,14.70
2018-07-23T05:28:09.638Z,14.77
2018-07-23T05:30:11.798Z,15.00
2018-07-23T05:32:13.919Z,13.37
2018-07-23T05:34:16.053Z,12.43
2018-07-23T05:36:18.196Z,12.43
2018-07-23T05:38:20.354Z,11.53
2018-07-23T05:40:22.482Z,12.30
2018-07-23T05:42:24.582Z,11.63
2018-07-23T05:44:26.747Z,11.63
2018-07-23T05:46:28.851Z,12.00
2018-07-23T05:48:30.954Z,10.60
2018-07-23T05:50:33.066Z,9.87
2018-07-23T05:52:35.266Z,9.60
2018-07-23T05:54:37.394Z,11.30
2018-07-23T05:56:39.547Z,14.67
2018-07-23T05:58:41.691Z,12.07
2018-07-23T06:00:43.802Z,12.70
2018-07-23T06:02:45.923Z,11.17
2018-07-23T06:04:48.210Z,9.80
2018-07-23T06:06:50.466Z,10.50
2018-07-23T06:08:52.530Z,9.87
2018-07-23T06:10:54.676Z,9.33
2018-07-23T06:12:56.838Z,8.70
2018-07-23T06:14:59.297Z,9.00
2018-07-23T06:17:01.470Z,8.30
2018-07-23T06:19:03.590Z,7.87
2018-07-23T06:21:05.757Z,8.40
2018-07-23T06:23:07.893Z,8.27
2018-07-23T06:25:10.034Z,7.57
2018-07-23T06:27:12.183Z,7.83
2018-07-23T06:29:14.343Z,8.23
2018-07-23T06:31:16.806Z,7.80
2018-07-23T06:33:18.990Z,8.30
2018-07-23T06:35:21.113Z,8.03
2018-07-23T06:37:23.266Z,8.57
2018-07-23T06:39:25.738Z,8.00
2018-07-23T06:41:27.931Z,9.10
2018-07-23T06:43:30.083Z,9.37
2018-07-23T06:45:32.285Z,8.30
2018-07-23T06:47:34.434Z,8.20
2018-07-23T06:49:36.572Z,8.70
2018-07-23T06:51:38.886Z,7.50
2018-07-23T06:53:41.243Z,8.23
2018-07-23T06:55:44.353Z,8.60
2018-07-23T06:57:46.554Z,8.57
2018-07-23T06:59:48.955Z,7.57
2018-07-23T07:01:51.082Z,8.00
2018-07-23T07:03:53.242Z,7.27
2018-07-23T07:05:55.399Z,7.10
2018-07-23T07:07:57.725Z,7.47
2018-07-23T07:09:59.902Z,7.00
2018-07-23T07:12:02.106Z,7.20
2018-07-23T07:14:04.408Z,7.30
2018-07-23T07:16:06.883Z,7.07
2018-07-23T07:18:09.070Z,7.20
2018-07-23T07:20:11.186Z,9.53
2018-07-23T07:22:13.325Z,7.60
2018-07-23T07:24:15.474Z,7.67
2018-07-23T07:26:17.636Z,6.30
2018-07-23T07:28:19.802Z,6.40
2018-07-23T07:30:21.983Z,6.70
2018-07-23T07:32:24.174Z,6.83
2018-07-23T07:34:26.352Z,7.80
2018-07-23T07:36:28.490Z,6.43
2018-07-23T07:38:30.657Z,6.20
2018-07-23T07:40:32.806Z,6.37
2018-07-23T07:42:34.942Z,5.70
2018-07-23T07:44:37.090Z,5.47
2018-07-23T07:46:40.086Z,6.13
2018-07-23T07:48:42.251Z,5.83
2018-07-23T07:50:44.406Z,6.57
2018-07-23T07:52:46.531Z,6.30
2018-07-23T07:54:48.670Z,6.03
2018-07-23T07:56:50.802Z,6.27
2018-07-23T07:58:52.980Z,7.40
2018-07-23T08:00:55.166Z,5.60
2018-07-23T08:02:57.358Z,5.47
2018-07-23T08:04:59.493Z,5.23
2018-07-23T08:07:01.687Z,5.73
2018-07-23T08:09:06.082Z,6.30
2018-07-23T08:11:08.447Z,5.17
2018-07-23T08:13:10.658Z,5.10
2018-07-23T08:15:12.812Z,6.30
2018-07-23T08:17:14.985Z,6.20
2018-07-23T08:19:17.206Z,5.50
2018-07-23T08:21:19.354Z,6.00
2018-07-23T08:23:21.508Z,5.93
2018-07-23T08:25:23.795Z,5.60
2018-07-23T08:27:25.941Z,5.70
2018-07-23T08:29:28.365Z,5.60
2018-07-23T08:31:30.602Z,5.27
2018-07-23T08:33:32.762Z,6.20
2018-07-23T08:35:35.238Z,5.97
2018-07-23T08:37:37.386Z,6.10
2018-07-23T08:39:39.570Z,9.97
2018-07-23T08:41:41.726Z,17.40
2018-07-23T08:43:43.936Z,14.03
2018-07-23T08:45:46.138Z,7.37
2018-07-23T08:47:48.334Z,6.37
2018-07-23T08:49:50.478Z,5.90
2018-07-23T08:51:52.630Z,7.00
2018-07-23T08:53:54.774Z,6.10
2018-07-23T08:55:57.219Z,11.00
2018-07-23T08:57:59.332Z,8.83
2018-07-23T09:00:01.638Z,7.77
2018-07-23T09:02:03.770Z,7.33
2018-07-23T09:04:05.953Z,8.87
2018-07-23T09:06:08.174Z,7.03
2018-07-23T09:08:10.302Z,6.23
2018-07-23T09:10:12.436Z,8.33
2018-07-23T09:12:14.571Z,7.17
2018-07-23T09:14:16.706Z,6.80
2018-07-23T09:16:18.867Z,7.80
2018-07-23T09:18:21.020Z,7.90
2018-07-23T09:20:23.284Z,7.40
2018-07-23T09:22:25.430Z,6.90
2018-07-23T09:24:27.541Z,7.70
2018-07-23T09:26:29.691Z,13.43
2018-07-23T09:28:31.835Z,8.60
2018-07-23T09:30:39.536Z,8.30
2018-07-23T09:32:41.663Z,6.07
2018-07-23T09:34:43.808Z,6.00
2018-07-23T09:36:45.967Z,6.90
2018-07-23T09:38:48.150Z,6.17
2018-07-23T09:40:50.650Z,6.27
2018-07-23T09:42:53.054Z,6.63
2018-07-23T09:44:55.177Z,5.57
2018-07-23T09:46:57.322Z,6.47
2018-07-23T09:48:59.482Z,7.40
2018-07-23T09:51:01.655Z,7.37
2018-07-23T09:53:03.802Z,6.30
2018-07-23T09:55:06.887Z,5.80
2018-07-23T09:57:09.318Z,6.80
2018-07-23T09:59:11.982Z,6.27
2018-07-23T10:01:17.198Z,6.67
2018-07-23T10:03:19.354Z,6.30
2018-07-23T10:05:21.494Z,6.93
2018-07-23T10:07:23.615Z,7.47
2018-07-23T10:09:25.999Z,7.50
2018-07-23T10:11:28.178Z,6.63
2018-07-23T10:13:30.346Z,6.20
2018-07-23T10:15:32.530Z,5.70
2018-07-23T10:17:34.899Z,5.20
2018-07-23T10:19:37.118Z,6.50
2018-07-23T10:21:46.227Z,6.90
2018-07-23T10:23:48.479Z,7.00
2018-07-23T10:25:50.647Z,9.63
2018-07-23T10:27:52.847Z,9.80
2018-07-23T10:29:55.016Z,6.27
2018-07-23T10:31:57.212Z,6.40
2018-07-23T10:33:59.366Z,5.63
2018-07-23T10:36:01.503Z,5.97
2018-07-23T10:38:04.151Z,6.03
2018-07-23T10:40:06.432Z,5.63
2018-07-23T10:42:08.610Z,5.90
2018-07-23T10:44:11.354Z,5.40
2018-07-23T10:46:13.510Z,5.93
2018-07-23T10:48:15.759Z,5.93
2018-07-23T10:50:17.915Z,5.93
2018-07-23T10:52:20.163Z,6.13
2018-07-23T10:54:22.274Z,5.90
2018-07-23T10:56:24.450Z,6.10
2018-07-23T10:58:26.718Z,5.83
2018-07-23T11:00:28.855Z,5.63
2018-07-23T11:02:31.018Z,4.93
2018-07-23T11:04:33.338Z,4.93
2018-07-23T11:06:35.474Z,4.90
2018-07-23T11:08:37.834Z,5.00
2018-07-23T11:10:40.386Z,5.20
2018-07-23T11:12:42.879Z,5.73
2018-07-23T11:14:45.015Z,5.37
2018-07-23T11:16:47.227Z,5.53
2018-07-23T11:18:49.439Z,5.80
2018-07-23T11:20:51.585Z,5.43
2018-07-23T11:22:53.717Z,5.60
2018-07-23T11:24:55.947Z,4.97
2018-07-23T11:26:58.069Z,4.97
2018-07-23T11:29:00.218Z,4.90
2018-07-23T11:31:02.382Z,5.30
2018-07-23T11:33:04.530Z,5.37
2018-07-23T11:35:06.987Z,5.07
2018-07-23T11:37:09.166Z,4.83
2018-07-23T11:39:11.671Z,4.80
2018-07-23T11:41:13.798Z,5.30
2018-07-23T11:43:15.975Z,10.50
2018-07-23T11:45:18.175Z,5.60
2018-07-23T11:47:20.580Z,5.10
2018-07-23T11:49:22.714Z,4.70
2018-07-23T11:51:24.872Z,4.87
2018-07-23T11:53:27.101Z,5.87
2018-07-23T11:55:29.162Z,5.00
2018-07-23T11:57:31.306Z,4.63
2018-07-23T11:59:33.466Z,4.70
2018-07-23T12:01:35.753Z,5.90
2018-07-23T12:03:37.882Z,5.57
2018-07-23T12:05:40.026Z,5.60
2018-07-23T12:07:42.223Z,5.40
2018-07-23T12:09:44.613Z,5.53
2018-07-23T12:11:46.829Z,5.43
2018-07-23T12:13:48.935Z,5.20
2018-07-23T12:15:51.096Z,7.73
2018-07-23T12:17:53.262Z,6.97
2018-07-23T12:19:55.533Z,5.37
2018-07-23T12:21:57.650Z,4.80
2018-07-23T12:23:59.802Z,4.63
2018-07-23T12:26:02.078Z,4.90
2018-07-23T12:28:04.386Z,5.97
2018-07-23T12:30:06.671Z,4.90
2018-07-23T12:32:08.834Z,5.20
2018-07-23T12:34:10.960Z,5.70
2018-07-23T12:36:13.118Z,5.00
2018-07-23T12:38:15.414Z,5.13
2018-07-23T12:40:17.560Z,5.90
2018-07-23T12:42:19.691Z,6.00
2018-07-23T12:44:21.797Z,5.80
2018-07-23T12:46:23.917Z,5.70
2018-07-23T12:48:26.051Z,5.53
2018-07-23T12:50:28.191Z,5.20
2018-07-23T12:52:30.433Z,5.20
2018-07-23T12:54:32.554Z,5.50
2018-07-23T12:56:34.698Z,5.77
2018-07-23T12:58:37.005Z,5.40
2018-07-23T13:00:39.217Z,5.10
2018-07-23T13:02:41.374Z,5.20
2018-07-23T13:04:43.506Z,6.93
2018-07-23T13:06:45.685Z,10.60
2018-07-23T13:08:47.790Z,10.30
2018-07-23T13:10:50.062Z,5.83
2018-07-23T13:12:52.194Z,4.93
2018-07-23T13:14:54.425Z,5.33
2018-07-23T13:16:56.570Z,4.90
2018-07-23T13:18:58.713Z,5.53
2018-07-23T13:21:00.939Z,5.27
2018-07-23T13:23:03.099Z,5.50
2018-07-23T13:25:05.264Z,4.83
2018-07-23T13:27:07.430Z,5.40
2018-07-23T13:29:09.702Z,5.13
2018-07-23T13:31:11.886Z,5.00
2018-07-23T13:33:14.038Z,5.10
2018-07-23T13:35:16.214Z,4.53
2018-07-23T13:37:18.362Z,5.00
2018-07-23T13:39:20.773Z,5.40
2018-07-23T13:41:22.934Z,4.77
2018-07-23T13:43:25.087Z,5.23
2018-07-23T13:45:27.233Z,5.47
2018-07-23T13:47:29.442Z,4.40
2018-07-23T13:49:31.626Z,5.40
2018-07-23T13:51:34.112Z,4.83
2018-07-23T13:53:36.310Z,4.27
2018-07-23T13:55:38.463Z,4.60
2018-07-23T13:57:40.613Z,4.30
2018-07-23T13:59:42.743Z,22.83
2018-07-23T14:01:44.882Z,5.23
2018-07-23T14:03:47.030Z,4.40
2018-07-23T14:05:49.162Z,4.37
2018-07-23T14:07:51.588Z,4.33
2018-07-23T14:09:53.777Z,7.10
2018-07-23T14:11:55.968Z,5.90
2018-07-23T14:13:58.290Z,5.30
2018-07-23T14:16:00.471Z,3.90
2018-07-23T14:18:02.853Z,3.67
2018-07-23T14:20:05.048Z,4.30
2018-07-23T14:22:07.202Z,3.70
2018-07-23T14:24:09.389Z,4.37
2018-07-23T14:26:11.550Z,4.30
2018-07-23T14:28:13.691Z,4.30
2018-07-23T14:30:15.894Z,4.70
2018-07-23T14:32:18.042Z,3.80
2018-07-23T14:34:20.593Z,4.28
2018-07-23T14:36:22.730Z,4.25
2018-07-23T14:38:24.893Z,3.58
2018-07-23T14:40:27.026Z,3.85
2018-07-23T14:42:29.286Z,6.22
2018-07-23T14:44:31.513Z,4.62
2018-07-23T14:46:33.645Z,3.98
2018-07-23T14:48:36.203Z,4.55
2018-07-23T14:50:38.906Z,4.25
2018-07-23T14:52:41.064Z,3.90
2018-07-23T14:54:43.218Z,4.27
2018-07-23T14:56:45.367Z,4.00
2018-07-23T14:58:47.506Z,4.20
2018-07-23T15:00:49.687Z,3.90
2018-07-23T15:02:51.838Z,3.90
2018-07-23T15:04:53.990Z,4.30
2018-07-23T15:06:56.142Z,4.20
2018-07-23T15:08:58.320Z,4.40
2018-07-23T15:11:00.479Z,4.47
2018-07-23T15:13:02.682Z,4.57
2018-07-23T15:15:04.838Z,5.23
2018-07-23T15:17:06.970Z,4.73
2018-07-23T15:19:09.098Z,4.60
2018-07-23T15:21:11.326Z,8.00
2018-07-23T15:23:13.454Z,5.53
2018-07-23T15:25:15.594Z,6.13
2018-07-23T15:27:17.956Z,5.07
2018-07-23T15:29:20.087Z,5.33
2018-07-23T15:31:22.221Z,4.73
2018-07-23T15:33:24.386Z,4.53
2018-07-23T15:35:26.525Z,5.07
2018-07-23T15:37:28.662Z,5.53
2018-07-23T15:39:30.775Z,6.93
2018-07-23T15:41:32.911Z,5.57
2018-07-23T15:43:35.079Z,5.30
2018-07-23T15:45:37.340Z,5.73
2018-07-23T15:47:39.358Z,4.90
2018-07-23T15:49:41.522Z,5.73
2018-07-23T15:51:43.662Z,5.50
2018-07-23T15:53:46.762Z,5.40
2018-07-23T15:55:48.935Z,5.27
2018-07-23T15:57:51.090Z,5.80
2018-07-23T15:59:53.234Z,5.60
2018-07-23T16:01:55.354Z,5.33
2018-07-23T16:03:57.770Z,5.80
2018-07-23T16:05:59.954Z,5.43
2018-07-23T16:08:02.082Z,5.40
2018-07-23T16:10:04.230Z,5.90
2018-07-23T16:12:06.562Z,5.63
2018-07-23T16:14:08.705Z,5.90
2018-07-23T16:16:10.958Z,5.23
2018-07-23T16:18:13.134Z,6.13
2018-07-23T16:20:15.392Z,6.10
2018-07-23T16:22:20.408Z,7.27
2018-07-23T16:24:22.622Z,5.70
2018-07-23T16:26:24.786Z,5.80
2018-07-23T16:28:26.926Z,5.83
2018-07-23T16:30:29.039Z,5.33
2018-07-23T16:32:31.195Z,5.97
2018-07-23T16:34:33.325Z,6.13
2018-07-23T16:36:35.499Z,6.07
2018-07-23T16:38:37.631Z,6.37
2018-07-23T16:40:39.778Z,5.47
2018-07-23T16:42:41.975Z,6.10
2018-07-23T16:44:44.220Z,5.90
2018-07-23T16:46:46.465Z,5.90
2018-07-23T16:48:48.677Z,6.07
2018-07-23T16:50:50.876Z,5.40
2018-07-23T16:52:53.214Z,6.10
2018-07-23T16:54:55.428Z,6.17
2018-07-23T16:56:57.636Z,6.10
2018-07-23T16:58:59.846Z,5.17
2018-07-23T17:01:02.051Z,6.10
2018-07-23T17:03:04.361Z,6.00
2018-07-23T17:05:06.564Z,5.50
2018-07-23T17:07:09.042Z,5.17
2018-07-23T17:09:11.971Z,5.67
2018-07-23T17:11:14.172Z,5.43
2018-07-23T17:13:16.387Z,5.40
2018-07-23T17:15:18.575Z,5.77
2018-07-23T17:17:20.747Z,10.93
2018-07-23T17:19:23.059Z,5.50
2018-07-23T17:21:25.228Z,5.90
2018-07-23T17:23:27.475Z,5.30
2018-07-23T17:25:29.633Z,6.43
2018-07-23T17:27:31.869Z,5.70
2018-07-23T17:29:35.805Z,5.00
2018-07-23T17:31:37.969Z,5.30
2018-07-23T17:33:40.093Z,4.90
2018-07-23T17:35:42.337Z,5.57
2018-07-23T17:37:44.641Z,5.77
2018-07-23T17:41:16.494Z,5.13
2018-07-23T17:43:18.841Z,5.50
2018-07-23T17:45:21.114Z,5.07
2018-07-23T17:47:23.299Z,5.53
2018-07-23T17:49:25.442Z,5.60
2018-07-23T17:51:27.685Z,5.50
2018-07-23T17:53:29.810Z,5.03
2018-07-23T17:55:31.949Z,5.30
2018-07-23T17:57:34.098Z,9.43
2018-07-23T17:59:36.210Z,5.13
2018-07-23T18:01:39.470Z,5.00
2018-07-23T18:03:41.854Z,5.13
2018-07-23T18:05:44.098Z,4.70
2018-07-23T18:07:46.208Z,4.50
2018-07-23T18:09:48.342Z,9.07
2018-07-23T18:11:50.506Z,5.50
2018-07-23T18:13:52.677Z,4.40
2018-07-23T18:15:55.023Z,4.60
2018-07-23T18:17:57.178Z,4.40
2018-07-23T18:19:59.544Z,4.87
2018-07-23T18:22:01.682Z,4.70
2018-07-23T18:24:04.522Z,4.60
2018-07-23T18:26:06.762Z,4.10
2018-07-23T18:28:08.954Z,4.70
2018-07-23T18:30:11.089Z,4.23
2018-07-23T18:32:13.248Z,4.57
2018-07-23T18:34:15.446Z,4.27
2018-07-23T18:36:17.937Z,4.20
2018-07-23T18:38:20.099Z,4.10
2018-07-23T18:40:22.187Z,4.17
2018-07-23T18:42:24.416Z,5.30
2018-07-23T18:44:26.583Z,4.50
2018-07-23T18:46:28.717Z,5.13
2018-07-23T18:49:43.368Z,4.37
2018-07-23T18:51:48.337Z,4.63
2018-07-23T18:53:50.466Z,4.60
2018-07-23T18:55:52.790Z,5.20
2018-07-23T18:57:54.913Z,5.47
2018-07-23T18:59:57.369Z,4.30
2018-07-23T19:02:00.634Z,4.50
2018-07-23T19:04:02.750Z,4.33
2018-07-23T19:06:04.862Z,4.20
2018-07-23T19:08:07.110Z,4.57
2018-07-23T19:10:09.442Z,4.23
2018-07-23T19:12:11.937Z,4.40
2018-07-23T19:14:14.564Z,4.40
2018-07-23T19:16:16.667Z,4.80
2018-07-23T19:18:18.805Z,4.80
2018-07-23T19:20:20.983Z,4.50
2018-07-23T19:22:23.065Z,3.90
2018-07-23T19:24:25.474Z,4.40
2018-07-23T19:26:28.142Z,4.00
2018-07-23T19:28:30.385Z,3.90
2018-07-23T19:30:32.524Z,4.23
2018-07-23T19:32:34.910Z,5.03
2018-07-23T19:34:37.053Z,5.60
2018-07-23T19:36:39.215Z,5.23
2018-07-23T19:38:41.371Z,4.63
2018-07-23T19:40:43.509Z,10.00
2018-07-23T19:42:45.618Z,6.80
2018-07-23T19:44:48.036Z,5.07
2018-07-23T19:46:50.180Z,4.77
2018-07-23T19:48:52.313Z,4.97
2018-07-23T19:50:54.522Z,5.00
2018-07-23T19:52:56.676Z,5.57
2018-07-23T19:54:58.974Z,8.33
2018-07-23T19:57:01.097Z,7.07
2018-07-23T19:59:03.478Z,7.30
2018-07-23T20:01:05.657Z,6.10
2018-07-23T20:03:07.773Z,6.00
2018-07-23T20:05:09.885Z,7.03
2018-07-23T20:07:12.279Z,7.07
2018-07-23T20:09:14.450Z,7.27
2018-07-23T20:11:16.850Z,9.20
2018-07-23T20:13:19.207Z,7.20
2018-07-23T20:15:21.313Z,6.33
2018-07-23T20:17:23.413Z,6.17
2018-07-23T20:19:25.663Z,5.50
2018-07-23T20:21:27.714Z,5.90
2018-07-23T20:23:29.842Z,9.07
2018-07-23T20:25:31.994Z,36.60
2018-07-23T20:27:34.253Z,17.70
2018-07-23T20:29:36.376Z,13.30
2018-07-23T20:31:38.479Z,9.80
2018-07-23T20:33:40.617Z,8.43
2018-07-23T20:35:42.811Z,7.90
2018-07-23T20:37:44.910Z,7.07
2018-07-23T20:39:47.163Z,6.13
2018-07-23T20:41:49.353Z,6.87
2018-07-23T20:43:51.462Z,5.90
2018-07-23T20:45:53.963Z,6.57
2018-07-23T20:47:56.507Z,6.43
2018-07-23T20:49:58.607Z,6.93
2018-07-23T20:52:00.715Z,6.90
2018-07-23T20:54:02.866Z,5.97
2018-07-23T20:56:05.202Z,6.63
2018-07-23T20:58:07.607Z,6.50
2018-07-23T21:00:09.766Z,5.93
2018-07-23T21:02:11.930Z,5.40
2018-07-23T21:04:14.270Z,5.87
2018-07-23T21:06:16.411Z,6.00
2018-07-23T21:08:18.548Z,5.23
2018-07-23T21:10:20.705Z,5.83
2018-07-23T21:12:22.846Z,5.57
2018-07-23T21:14:25.006Z,5.60
2018-07-23T21:16:27.569Z,5.40
2018-07-23T21:18:29.750Z,5.80
2018-07-23T21:20:31.918Z,11.40
2018-07-23T21:22:34.087Z,10.13
2018-07-23T21:24:36.210Z,79.03
2018-07-23T21:26:38.672Z,52.67
2018-07-23T21:28:40.801Z,24.47
2018-07-23T21:30:42.991Z,13.67
2018-07-23T21:32:45.162Z,11.47
2018-07-23T21:34:47.274Z,8.90
2018-07-23T21:36:49.434Z,10.30
2018-07-23T21:38:51.550Z,8.40
2018-07-23T21:40:53.752Z,10.50
2018-07-23T21:42:55.911Z,6.93
2018-07-23T21:44:58.095Z,6.20
2018-07-23T21:47:00.261Z,6.50
2018-07-23T21:49:02.721Z,8.13
2018-07-23T21:51:04.867Z,7.80
2018-07-23T21:53:06.994Z,7.80
2018-07-23T21:55:09.158Z,7.00
2018-07-23T21:57:11.289Z,6.57
2018-07-23T21:59:13.409Z,7.30
2018-07-23T22:01:15.525Z,6.67
2018-07-23T22:03:17.706Z,7.07
2018-07-23T22:05:19.838Z,6.10
2018-07-23T22:07:21.942Z,5.43
2018-07-23T22:09:24.202Z,6.63
2018-07-23T22:11:26.362Z,5.90
2018-07-23T22:13:28.546Z,6.50
2018-07-23T22:15:30.637Z,6.40
2018-07-23T22:17:32.775Z,6.40
2018-07-23T22:19:34.919Z,6.90
2018-07-23T22:21:37.038Z,6.00
2018-07-23T22:23:39.180Z,6.33
2018-07-23T22:25:41.291Z,5.80
2018-07-23T22:27:43.394Z,6.10
2018-07-23T22:29:45.514Z,5.10
2018-07-23T22:31:47.630Z,6.40
2018-07-23T22:33:49.750Z,6.50
2018-07-23T22:35:51.885Z,5.67
2018-07-23T22:37:53.990Z,5.83
2018-07-23T22:39:56.090Z,6.90
2018-07-23T22:41:58.247Z,6.30
2018-07-23T22:44:00.313Z,5.90
2018-07-23T22:46:02.442Z,6.07
2018-07-23T22:48:04.698Z,5.70
2018-07-23T22:50:06.832Z,6.20
2018-07-23T22:52:08.923Z,6.43
2018-07-23T22:54:11.002Z,6.23
2018-07-23T22:56:13.167Z,6.87
2018-07-23T22:58:15.277Z,6.57
2018-07-23T23:00:17.374Z,6.60
2018-07-23T23:02:19.478Z,6.43
2018-07-23T23:04:21.610Z,6.30
2018-07-23T23:06:23.702Z,6.33
2018-07-23T23:08:25.822Z,6.40
2018-07-23T23:10:27.985Z,6.50
2018-07-23T23:12:30.097Z,6.70
2018-07-23T23:14:32.233Z,6.13
2018-07-23T23:16:34.394Z,6.20
2018-07-23T23:18:36.497Z,5.90
2018-07-23T23:20:38.611Z,6.13
2018-07-23T23:22:40.721Z,6.90
2018-07-23T23:24:42.969Z,7.60
2018-07-23T23:26:45.086Z,6.47
2018-07-23T23:28:47.185Z,7.07
2018-07-23T23:30:49.277Z,8.53
2018-07-23T23:32:51.396Z,27.57
2018-07-23T23:34:53.765Z,16.20
2018-07-23T23:36:55.899Z,11.20
2018-07-23T23:38:58.021Z,9.73
2018-07-23T23:41:00.143Z,8.83
2018-07-23T23:43:02.280Z,7.67
2018-07-23T23:45:05.341Z,6.73
2018-07-23T23:47:07.483Z,6.70
2018-07-23T23:49:09.590Z,6.77
2018-07-23T23:51:13.377Z,6.73
2018-07-23T23:53:15.638Z,6.60
2018-07-23T23:55:17.741Z,6.70
2018-07-23T23:57:19.858Z,7.03
2018-07-23T23:59:22.240Z,6.40
